طرطوس, سوريا

07:53 AM EET on وèلهبر 29, 2014 (GMT +0200)
Bassel Al-Assad International | Change Station
CLOSE
Current Station
Airport
Location: Lattakia,
Elevation: 154 ft
Nearby Weather Stations

Elev 154 ft 35.40 °N, 35.95 °E | Updated -419 second ago

Scattered Clouds
غيوم متفرقة
54 °F
Feels Like 54 °F
N
2
ريح متغير ريح from ENE

هذا اليوم
High -- | Low -- °F
--% Chance of Precip.
Yesterday
High -- | Low -- °F
Precip. -- في
6:23 AM 4:25 PM
الهلال الأول, 48% visible
الضغط 30.24 في
وضوح الرؤية 6.2 أميال
سحابات Few 2600 ft
غيوم متفرقة 3000 ft
نقطة الندى 50 °F
الرطوبة 88%
Rainfall 0.00 في
عمق الثلج Not available.
الأشعة فوق البنفسجية 1 out of 12
Pollen Not available.
جودة الهواء Not available.
Flu Activity Not available.
METAR OSLK 290600Z 07002KT 9999 FEW026 SCT030 12/10 Q1024

More Conditions Fewer Conditions

الضغط 30.24 في
وضوح الرؤية 6.2 أميال
سحابات Few 2600 ft
غيوم متفرقة 3000 ft
نقطة الندى 50 °F
الرطوبة 88%
Rainfall 0.00 في
عمق الثلج Not available.
الأشعة فوق البنفسجية 1 out of 12
Pollen Not available.
جودة الهواء Not available.
Flu Activity Not available.
METAR OSLK 290600Z 07002KT 9999 FEW026 SCT030 12/10 Q1024

More Conditions Fewer Conditions

10-Day Weather Forecast

Almanac

علم الفلك

Nov. 29, 2014 Rise Set
Actual Time
Civil Twilight
Nautical Twilight
Astronomical Twilight
قمر
Length Of Visible Light
طول الیوم
Tomorrow will be .
, % of the Moon is Illuminated

Today's Extremes

Country Highs Country Lows

Community

WunderPhotos

Upload Photos

1,774,420 photos uploaded!

WunderBlogs® & News

Nearby

جودة الهواء

  جودة الهواء AQ Index Pollutant
Not available.

عمق الثلج

Station Depth Elevation

Earthquake Activity

City Distance Mag. Time & Date
Minimum magnitude displayed is 2.5.

Coastal Water Temperatures

مكان درجات الحرارة

Nearby Weather Stations